createdAt,value
2023-09-22T00:01:27.032Z,6.90
2023-09-22T00:03:53.948Z,6.75
2023-09-22T00:06:23.394Z,4.15
2023-09-22T00:08:50.178Z,7.30
2023-09-22T00:11:17.306Z,3.58
2023-09-22T00:13:44.037Z,7.47
2023-09-22T00:16:11.356Z,8.55
2023-09-22T00:18:38.078Z,5.20
2023-09-22T00:21:05.967Z,5.90
2023-09-22T00:23:32.732Z,7.00
2023-09-22T00:25:59.282Z,3.88
2023-09-22T00:28:25.953Z,7.10
2023-09-22T00:30:52.724Z,5.13
2023-09-22T00:33:19.820Z,7.15
2023-09-22T00:35:46.386Z,3.85
2023-09-22T00:38:12.940Z,4.00
2023-09-22T00:40:39.482Z,6.60
2023-09-22T00:43:10.621Z,3.22
2023-09-22T00:45:38.195Z,3.95
2023-09-22T00:48:05.756Z,5.57
2023-09-22T00:50:32.683Z,5.22
2023-09-22T00:52:59.230Z,5.97
2023-09-22T00:55:25.813Z,5.53
2023-09-22T00:57:52.610Z,7.10
2023-09-22T01:00:21.208Z,4.07
2023-09-22T01:02:47.834Z,6.03
2023-09-22T01:05:14.677Z,5.75
2023-09-22T01:07:41.238Z,5.97
2023-09-22T01:10:08.740Z,6.68
2023-09-22T01:12:35.376Z,4.32
2023-09-22T01:15:02.057Z,7.05
2023-09-22T01:17:28.598Z,5.55
2023-09-22T01:19:55.157Z,3.70
2023-09-22T01:22:21.694Z,4.43
2023-09-22T01:24:48.405Z,4.13
2023-09-22T01:27:14.955Z,6.80
2023-09-22T01:29:41.575Z,3.67
2023-09-22T01:32:11.407Z,7.38
2023-09-22T01:34:37.953Z,5.22
2023-09-22T01:37:08.727Z,5.47
2023-09-22T01:39:35.908Z,6.18
2023-09-22T01:42:02.494Z,4.97
2023-09-22T01:44:28.988Z,3.45
2023-09-22T01:46:55.570Z,6.07
2023-09-22T01:49:22.557Z,6.80
2023-09-22T01:51:49.189Z,4.80
2023-09-22T01:54:15.869Z,4.30
2023-09-22T01:56:42.421Z,3.22
2023-09-22T01:59:08.962Z,4.20
2023-09-22T02:01:35.554Z,6.78
2023-09-22T02:04:02.588Z,5.40
2023-09-22T02:06:29.407Z,8.10
2023-09-22T02:08:56.227Z,6.40
2023-09-22T02:11:22.748Z,5.47
2023-09-22T02:13:49.308Z,3.80
2023-09-22T02:16:16.051Z,4.32
2023-09-22T02:18:42.995Z,4.40
2023-09-22T02:21:09.947Z,5.30
2023-09-22T02:23:37.297Z,6.40
2023-09-22T02:26:10.428Z,4.50
2023-09-22T02:28:37.052Z,5.18
2023-09-22T02:31:03.811Z,5.00
2023-09-22T02:33:30.874Z,4.15
2023-09-22T02:35:57.499Z,6.30
2023-09-22T02:38:24.099Z,5.85
2023-09-22T02:40:50.676Z,7.28
2023-09-22T02:43:17.205Z,6.68
2023-09-22T02:45:43.929Z,6.40
2023-09-22T02:48:10.783Z,4.20
2023-09-22T02:50:38.162Z,7.18
2023-09-22T02:53:05.573Z,6.00
2023-09-22T02:55:32.661Z,6.72
2023-09-22T02:57:59.316Z,4.68
2023-09-22T03:00:26.622Z,3.97
2023-09-22T03:02:54.665Z,4.95
2023-09-22T03:05:21.267Z,6.28
2023-09-22T03:07:48.122Z,3.92
2023-09-22T03:10:15.450Z,8.80
2023-09-22T03:12:42.108Z,5.32
2023-09-22T03:15:11.098Z,6.88
2023-09-22T03:17:38.426Z,5.47
2023-09-22T03:20:08.470Z,12.05
2023-09-22T03:22:36.075Z,4.30
2023-09-22T03:25:04.114Z,6.60
2023-09-22T03:27:35.572Z,10.75
2023-09-22T03:30:07.362Z,5.15
2023-09-22T03:32:35.008Z,5.75
2023-09-22T03:35:01.810Z,4.80
2023-09-22T03:37:28.822Z,5.05
2023-09-22T03:39:58.446Z,7.75
2023-09-22T03:42:26.295Z,4.60
2023-09-22T03:44:52.945Z,4.90
2023-09-22T03:47:19.556Z,5.97
2023-09-22T03:49:46.404Z,5.55
2023-09-22T03:52:13.910Z,5.40
2023-09-22T03:54:40.575Z,6.75
2023-09-22T03:57:08.098Z,5.65
2023-09-22T03:59:34.731Z,4.60
2023-09-22T04:02:01.298Z,8.93
2023-09-22T04:04:31.490Z,4.20
2023-09-22T04:06:59.538Z,5.63
2023-09-22T04:09:26.542Z,8.57
2023-09-22T04:11:56.178Z,5.72
2023-09-22T04:14:22.921Z,6.15
2023-09-22T04:16:49.585Z,4.53
2023-09-22T04:19:16.266Z,6.25
2023-09-22T04:21:49.629Z,4.95
2023-09-22T04:24:16.569Z,6.00
2023-09-22T04:26:46.130Z,5.15
2023-09-22T04:29:12.702Z,5.28
2023-09-22T04:31:39.607Z,4.68
2023-09-22T04:34:06.330Z,7.30
2023-09-22T04:36:33.744Z,7.10
2023-09-22T04:39:01.485Z,5.95
2023-09-22T04:41:28.223Z,5.45
2023-09-22T04:43:57.720Z,5.13
2023-09-22T04:46:24.400Z,6.55
2023-09-22T04:48:51.114Z,5.78
2023-09-22T04:51:17.975Z,6.35
2023-09-22T04:53:44.717Z,6.53
2023-09-22T04:56:11.622Z,5.35
2023-09-22T04:58:41.809Z,6.40
2023-09-22T05:01:09.866Z,5.70
2023-09-22T05:03:36.911Z,5.93
2023-09-22T05:06:07.435Z,5.35
2023-09-22T05:08:34.486Z,8.98
2023-09-22T05:11:08.825Z,7.38
2023-09-22T05:13:36.710Z,10.52
2023-09-22T05:16:11.554Z,7.38
2023-09-22T05:18:38.316Z,6.43
2023-09-22T05:21:05.604Z,8.73
2023-09-22T05:23:35.512Z,9.63
2023-09-22T05:26:08.593Z,8.90
2023-09-22T05:28:35.472Z,9.93
2023-09-22T05:31:32.632Z,6.18
2023-09-22T05:33:59.291Z,5.80
2023-09-22T05:36:25.995Z,7.22
2023-09-22T05:38:52.582Z,9.65
2023-09-22T05:41:19.188Z,7.60
2023-09-22T05:43:46.024Z,9.35
2023-09-22T05:46:13.147Z,6.35
2023-09-22T05:48:39.937Z,10.23
2023-09-22T05:51:06.547Z,6.75
2023-09-22T05:53:33.916Z,8.27
2023-09-22T05:56:10.555Z,4.30
2023-09-22T05:58:37.595Z,7.93
2023-09-22T06:01:11.528Z,5.53
2023-09-22T06:03:38.823Z,5.90
2023-09-22T06:06:15.325Z,5.63
2023-09-22T06:08:43.101Z,8.00
2023-09-22T06:11:09.982Z,3.47
2023-09-22T06:13:37.656Z,3.50
2023-09-22T06:16:04.413Z,6.30
2023-09-22T06:18:31.243Z,6.68
2023-09-22T06:20:58.278Z,6.72
2023-09-22T06:23:24.952Z,6.50
2023-09-22T06:25:52.603Z,7.95
2023-09-22T06:28:20.273Z,5.65
2023-09-22T06:30:51.396Z,7.53
2023-09-22T06:33:18.187Z,5.55
2023-09-22T06:35:47.862Z,3.45
2023-09-22T06:38:20.449Z,9.25
2023-09-22T06:40:47.344Z,4.47
2023-09-22T06:43:23.032Z,9.07
2023-09-22T06:45:53.391Z,5.40
2023-09-22T06:48:23.432Z,4.32
2023-09-22T06:50:53.224Z,3.83
2023-09-22T06:53:20.410Z,5.13
2023-09-22T06:55:47.036Z,5.93
2023-09-22T06:58:13.707Z,8.73
2023-09-22T07:00:40.421Z,7.32
2023-09-22T07:03:07.741Z,5.18
2023-09-22T07:05:34.650Z,4.75
2023-09-22T07:08:01.278Z,5.40
2023-09-22T07:10:28.071Z,5.45
2023-09-22T07:12:54.684Z,5.28
2023-09-22T07:15:23.559Z,5.63
2023-09-22T07:17:50.147Z,6.95
2023-09-22T07:20:17.176Z,4.72
2023-09-22T07:22:45.303Z,6.40
2023-09-22T07:25:12.524Z,3.55
2023-09-22T07:27:47.345Z,4.68
2023-09-22T07:30:19.594Z,7.97
2023-09-22T07:32:55.112Z,5.20
2023-09-22T07:35:27.045Z,5.30
2023-09-22T07:37:55.242Z,3.65
2023-09-22T07:40:24.591Z,3.28
2023-09-22T07:42:55.620Z,3.85
2023-09-22T07:45:23.569Z,7.40
2023-09-22T07:47:51.684Z,4.32
2023-09-22T07:50:24.276Z,3.55
2023-09-22T07:52:51.494Z,3.70
2023-09-22T07:55:20.218Z,5.60
2023-09-22T07:57:54.108Z,5.65
2023-09-22T08:00:21.252Z,3.80
2023-09-22T08:02:53.678Z,3.58
2023-09-22T08:05:21.957Z,3.17
2023-09-22T08:07:52.096Z,4.43
2023-09-22T08:10:20.595Z,6.28
2023-09-22T08:12:52.996Z,3.67
2023-09-22T08:15:21.631Z,5.45
2023-09-22T08:17:48.660Z,3.15
2023-09-22T08:20:19.271Z,3.20
2023-09-22T08:22:51.569Z,2.78
2023-09-22T08:25:19.123Z,1.52
2023-09-22T08:27:49.874Z,3.25
2023-09-22T08:30:17.990Z,2.80
2023-09-22T08:36:01.671Z,1.60
2023-09-22T08:38:34.637Z,5.28
2023-09-22T08:41:02.007Z,3.30
2023-09-22T08:43:29.752Z,4.90
2023-09-22T08:45:56.625Z,3.67
2023-09-22T08:48:25.558Z,2.90
2023-09-22T08:50:57.530Z,2.30
2023-09-22T08:53:35.776Z,2.47
2023-09-22T08:56:08.358Z,2.80
2023-09-22T08:58:37.015Z,6.47
2023-09-22T09:01:06.931Z,2.75
2023-09-22T09:09:18.903Z,3.45
2023-09-22T09:12:01.001Z,3.80
2023-09-22T09:14:50.172Z,6.30
2023-09-22T09:17:24.751Z,7.47
2023-09-22T09:19:57.567Z,2.85
2023-09-22T09:22:32.295Z,3.17
2023-09-22T09:25:03.217Z,3.28
2023-09-22T09:27:30.569Z,2.72
2023-09-22T09:29:59.243Z,3.25
2023-09-22T09:32:33.044Z,2.35
2023-09-22T09:34:59.844Z,6.72
2023-09-22T09:37:27.441Z,3.28
2023-09-22T09:39:55.057Z,1.63
2023-09-22T09:42:24.368Z,2.60
2023-09-22T09:44:53.989Z,2.97
2023-09-22T09:47:30.775Z,3.67
2023-09-22T09:49:58.329Z,4.38
2023-09-22T09:52:28.393Z,3.90
2023-09-22T09:55:28.046Z,4.18
2023-09-22T09:58:02.410Z,5.35
2023-09-22T10:00:30.500Z,2.85
2023-09-22T10:02:59.837Z,2.47
2023-09-22T10:05:26.744Z,4.03
2023-09-22T10:08:01.710Z,2.22
2023-09-22T10:10:28.493Z,1.65
2023-09-22T10:12:58.269Z,4.30
2023-09-22T10:15:44.482Z,3.13
2023-09-22T10:18:14.986Z,7.88
2023-09-22T10:20:46.608Z,6.57
2023-09-22T10:23:32.439Z,6.07
2023-09-22T10:26:21.008Z,3.85
2023-09-22T10:28:50.455Z,1.77
2023-09-22T10:31:20.370Z,6.68
2023-09-22T10:33:48.368Z,5.38
2023-09-22T10:36:34.303Z,4.53
2023-09-22T10:39:02.651Z,5.47
2023-09-22T10:41:29.275Z,3.47
2023-09-22T10:43:57.830Z,3.25
2023-09-22T10:46:26.531Z,2.20
2023-09-22T10:48:55.001Z,2.97
2023-09-22T10:51:33.071Z,4.97
2023-09-22T10:54:02.861Z,2.88
2023-09-22T10:56:30.634Z,2.53
2023-09-22T10:58:57.490Z,1.15
2023-09-22T11:01:26.441Z,1.63
2023-09-22T11:03:57.497Z,2.60
2023-09-22T11:06:26.821Z,3.85
2023-09-22T11:08:54.416Z,2.50
2023-09-22T11:11:24.038Z,6.65
2023-09-22T11:13:58.373Z,3.13
2023-09-22T11:16:26.229Z,4.20
2023-09-22T11:19:06.398Z,1.10
2023-09-22T11:21:40.860Z,3.25
2023-09-22T11:24:08.699Z,1.55
2023-09-22T11:26:42.990Z,2.70
2023-09-22T11:29:10.490Z,2.47
2023-09-22T11:31:50.542Z,5.93
2023-09-22T11:34:18.864Z,4.22
2023-09-22T11:36:49.559Z,1.58
2023-09-22T11:39:28.733Z,2.70
2023-09-22T11:41:56.292Z,1.73
2023-09-22T11:44:23.047Z,7.95
2023-09-22T11:46:50.056Z,1.30
2023-09-22T11:49:17.064Z,4.63
2023-09-22T11:51:53.132Z,5.55
2023-09-22T11:54:21.184Z,7.88
2023-09-22T11:56:48.174Z,2.33
2023-09-22T11:59:16.006Z,3.67
2023-09-22T12:01:47.668Z,1.67
2023-09-22T12:04:28.001Z,1.85
2023-09-22T12:06:55.100Z,2.78
2023-09-22T12:09:30.293Z,4.68
2023-09-22T12:11:59.913Z,4.40
2023-09-22T12:14:26.788Z,3.33
2023-09-22T12:16:53.668Z,2.15
2023-09-22T12:19:25.516Z,4.10
2023-09-22T12:22:19.558Z,1.25
2023-09-22T12:24:44.956Z,2.95
2023-09-22T12:27:21.031Z,1.75
2023-09-22T12:29:47.842Z,1.95
2023-09-22T12:32:14.702Z,3.83
2023-09-22T12:34:41.450Z,2.78
2023-09-22T12:37:08.168Z,2.80
2023-09-22T12:39:34.945Z,3.28
2023-09-22T12:42:01.622Z,4.30
2023-09-22T12:44:28.715Z,3.05
2023-09-22T12:46:55.342Z,2.22
2023-09-22T12:49:22.570Z,2.40
2023-09-22T12:51:49.237Z,3.55
2023-09-22T12:54:15.987Z,3.17
2023-09-22T12:56:44.050Z,2.47
2023-09-22T12:59:11.034Z,2.13
2023-09-22T13:01:41.739Z,4.22
2023-09-22T13:04:08.698Z,2.85
2023-09-22T13:06:35.968Z,1.00
2023-09-22T13:09:11.302Z,2.90
2023-09-22T13:11:38.205Z,3.72
2023-09-22T13:14:11.437Z,3.47
2023-09-22T13:16:38.662Z,2.35
2023-09-22T13:19:07.985Z,3.22
2023-09-22T13:21:36.858Z,1.95
2023-09-22T13:24:05.581Z,2.00
2023-09-22T13:26:46.356Z,4.00
2023-09-22T13:29:18.298Z,3.63
2023-09-22T13:32:03.241Z,4.45
2023-09-22T13:34:37.963Z,1.63
2023-09-22T13:37:07.902Z,1.48
2023-09-22T13:39:37.134Z,3.33
2023-09-22T13:42:10.492Z,2.88
2023-09-22T13:44:40.141Z,1.40
2023-09-22T13:47:11.839Z,2.58
2023-09-22T13:49:44.735Z,1.00
2023-09-22T13:52:11.762Z,2.80
2023-09-22T13:54:45.616Z,3.88
2023-09-22T13:57:15.264Z,3.13
2023-09-22T14:00:26.839Z,2.53
2023-09-22T14:03:04.672Z,2.78
2023-09-22T14:05:36.181Z,2.30
2023-09-22T14:08:13.859Z,3.30
2023-09-22T14:10:43.310Z,2.45
2023-09-22T14:13:11.527Z,2.90
2023-09-22T14:15:46.990Z,1.73
2023-09-22T14:18:25.857Z,3.15
2023-09-22T14:21:21.708Z,2.25
2023-09-22T14:24:20.007Z,2.40
2023-09-22T14:26:55.042Z,2.58
2023-09-22T14:29:23.724Z,3.35
2023-09-22T14:31:54.158Z,5.55
2023-09-22T14:34:21.340Z,3.55
2023-09-22T14:37:07.275Z,2.88
2023-09-22T14:39:39.990Z,1.98
2023-09-22T14:42:08.725Z,4.85
2023-09-22T14:44:37.572Z,3.67
2023-09-22T14:47:05.381Z,3.45
2023-09-22T14:49:33.361Z,4.15
2023-09-22T14:52:05.105Z,3.00
2023-09-22T14:54:37.159Z,1.70
2023-09-22T14:57:06.602Z,4.10
2023-09-22T14:59:33.767Z,4.00
2023-09-22T15:02:01.568Z,4.80
2023-09-22T15:04:30.962Z,2.22
2023-09-22T15:06:57.920Z,4.85
2023-09-22T15:09:25.932Z,2.45
2023-09-22T15:11:52.524Z,4.82
2023-09-22T15:14:19.188Z,8.15
2023-09-22T15:16:45.806Z,3.72
2023-09-22T15:19:12.792Z,2.10
2023-09-22T15:21:39.763Z,3.33
2023-09-22T15:24:06.675Z,3.72
2023-09-22T15:26:33.743Z,2.92
2023-09-22T15:29:03.556Z,1.85
2023-09-22T15:31:30.309Z,2.72
2023-09-22T15:33:57.249Z,1.83
2023-09-22T15:36:30.605Z,2.15
2023-09-22T15:39:00.457Z,3.13
2023-09-22T15:41:32.013Z,2.53
2023-09-22T15:43:58.790Z,2.88
2023-09-22T15:46:26.937Z,2.20
2023-09-22T15:48:53.771Z,4.70
2023-09-22T15:51:20.521Z,2.72
2023-09-22T15:53:47.531Z,3.58
2023-09-22T15:56:15.312Z,4.82
2023-09-22T15:58:42.404Z,8.95
2023-09-22T16:01:09.219Z,5.28
2023-09-22T16:03:36.126Z,4.10
2023-09-22T16:06:04.739Z,6.45
2023-09-22T16:08:31.437Z,4.07
2023-09-22T16:10:58.598Z,4.60
2023-09-22T16:13:28.536Z,4.07
2023-09-22T16:15:56.149Z,6.43
2023-09-22T16:18:22.872Z,2.45
2023-09-22T16:20:49.620Z,5.50
2023-09-22T16:23:16.478Z,3.78
2023-09-22T16:25:43.259Z,5.78
2023-09-22T16:28:10.689Z,8.73
2023-09-22T16:30:38.706Z,5.07
2023-09-22T16:33:05.772Z,6.25
2023-09-22T16:35:32.985Z,6.43
2023-09-22T16:37:59.856Z,8.13
2023-09-22T16:40:26.672Z,5.00
2023-09-22T16:42:54.110Z,9.85
2023-09-22T16:45:21.007Z,8.52
2023-09-22T16:47:47.894Z,9.35
2023-09-22T16:50:15.911Z,6.05
2023-09-22T16:52:42.904Z,5.93
2023-09-22T16:55:09.890Z,6.10
2023-09-22T16:57:36.592Z,10.07
2023-09-22T17:00:06.339Z,8.85
2023-09-22T17:02:33.854Z,7.68
2023-09-22T17:05:02.758Z,9.68
2023-09-22T17:07:29.663Z,9.20
2023-09-22T17:09:56.498Z,8.70
2023-09-22T17:12:34.169Z,6.65
2023-09-22T17:15:04.438Z,4.88
2023-09-22T17:17:32.079Z,3.20
2023-09-22T17:19:58.796Z,4.38
2023-09-22T17:22:25.487Z,3.08
2023-09-22T17:24:52.090Z,3.97
2023-09-22T17:27:18.611Z,3.45
2023-09-22T17:29:45.494Z,7.00
2023-09-22T17:32:13.293Z,5.63
2023-09-22T17:34:40.147Z,4.10
2023-09-22T17:37:06.758Z,3.38
2023-09-22T17:39:33.581Z,5.07
2023-09-22T17:42:00.890Z,3.92
2023-09-22T17:44:27.490Z,2.58
2023-09-22T17:46:55.858Z,5.43
2023-09-22T17:49:22.535Z,3.83
2023-09-22T17:51:49.307Z,5.40
2023-09-22T17:54:16.037Z,4.30
2023-09-22T17:56:42.649Z,4.18
2023-09-22T17:59:11.073Z,5.47
2023-09-22T18:01:37.908Z,4.70
2023-09-22T18:04:05.331Z,5.72
2023-09-22T18:06:44.078Z,5.57
2023-09-22T18:09:20.843Z,4.65
2023-09-22T18:12:07.634Z,6.22
2023-09-22T18:14:34.228Z,4.63
2023-09-22T18:17:02.431Z,5.20
2023-09-22T18:19:29.342Z,3.45
2023-09-22T18:21:56.257Z,3.72
2023-09-22T18:24:24.180Z,4.78
2023-09-22T18:26:50.701Z,2.88
2023-09-22T18:29:17.422Z,3.72
2023-09-22T18:31:44.161Z,3.58
2023-09-22T18:34:11.233Z,4.78
2023-09-22T18:36:37.865Z,3.78
2023-09-22T18:39:04.492Z,3.00
2023-09-22T18:41:31.244Z,2.65
2023-09-22T18:43:59.366Z,5.10
2023-09-22T18:46:26.124Z,3.65
2023-09-22T18:48:52.677Z,3.05
2023-09-22T18:51:21.954Z,3.05
2023-09-22T18:53:48.857Z,3.80
2023-09-22T18:56:16.156Z,4.60
2023-09-22T18:58:42.780Z,4.75
2023-09-22T19:01:09.721Z,4.63
2023-09-22T19:03:36.507Z,2.83
2023-09-22T19:06:04.446Z,5.97
2023-09-22T19:08:31.108Z,4.40
2023-09-22T19:10:58.172Z,4.18
2023-09-22T19:13:25.039Z,6.32
2023-09-22T19:15:51.734Z,2.67
2023-09-22T19:18:18.409Z,3.80
2023-09-22T19:20:45.108Z,2.38
2023-09-22T19:23:13.760Z,6.40
2023-09-22T19:25:43.848Z,3.70
2023-09-22T19:28:11.857Z,4.53
2023-09-22T19:30:42.288Z,4.18
2023-09-22T19:33:09.870Z,5.70
2023-09-22T19:35:40.743Z,7.00
2023-09-22T19:38:07.725Z,3.58
2023-09-22T19:40:36.595Z,4.13
2023-09-22T19:43:03.119Z,3.10
2023-09-22T19:45:29.717Z,4.63
2023-09-22T19:47:56.489Z,5.50
2023-09-22T19:50:23.109Z,4.55
2023-09-22T19:52:49.774Z,5.18
2023-09-22T19:55:16.360Z,4.20
2023-09-22T19:57:45.106Z,7.05
2023-09-22T20:00:19.680Z,4.97
2023-09-22T20:02:46.514Z,8.43
2023-09-22T20:05:16.391Z,3.60
2023-09-22T20:07:43.057Z,3.50
2023-09-22T20:10:10.145Z,3.58
2023-09-22T20:12:36.870Z,7.47
2023-09-22T20:15:03.716Z,2.72
2023-09-22T20:17:30.402Z,4.07
2023-09-22T20:19:57.568Z,4.35
2023-09-22T20:22:26.818Z,4.75
2023-09-22T20:24:53.710Z,4.88
2023-09-22T20:27:25.909Z,4.00
2023-09-22T20:29:54.008Z,6.97
2023-09-22T20:32:25.041Z,6.60
2023-09-22T20:34:52.646Z,7.43
2023-09-22T20:37:20.894Z,4.20
2023-09-22T20:39:52.011Z,3.47
2023-09-22T20:42:19.186Z,5.97
2023-09-22T20:44:45.943Z,7.78
2023-09-22T20:47:13.041Z,4.47
2023-09-22T20:49:40.065Z,5.40
2023-09-22T20:52:06.982Z,4.60
2023-09-22T20:54:35.345Z,11.55
2023-09-22T20:57:01.910Z,4.45
2023-09-22T20:59:28.565Z,6.45
2023-09-22T21:01:55.328Z,5.80
2023-09-22T21:04:22.134Z,4.90
2023-09-22T21:06:52.882Z,8.20
2023-09-22T21:09:22.499Z,6.55
2023-09-22T21:11:49.293Z,5.00
2023-09-22T21:14:16.353Z,8.70
2023-09-22T21:16:43.001Z,6.43
2023-09-22T21:19:09.588Z,9.65
2023-09-22T21:21:36.117Z,6.13
2023-09-22T21:24:02.724Z,7.88
2023-09-22T21:26:29.418Z,9.98
2023-09-22T21:29:04.327Z,7.10
2023-09-22T21:31:31.219Z,9.43
2023-09-22T21:33:58.254Z,9.75
2023-09-22T21:36:24.856Z,6.38
2023-09-22T21:38:55.139Z,6.93
2023-09-22T21:41:22.823Z,8.50
2023-09-22T21:43:50.039Z,8.05
2023-09-22T21:46:18.531Z,6.88
2023-09-22T21:48:45.276Z,9.55
2023-09-22T21:51:13.332Z,7.10
2023-09-22T21:53:41.800Z,7.78
2023-09-22T21:56:08.590Z,9.23
2023-09-22T21:58:35.231Z,6.80
2023-09-22T22:01:02.981Z,10.02
2023-09-22T22:03:29.923Z,9.43
2023-09-22T22:05:56.618Z,8.70
2023-09-22T22:08:23.178Z,10.40
2023-09-22T22:10:50.116Z,9.02
2023-09-22T22:13:20.843Z,7.45
2023-09-22T22:15:47.713Z,9.63
2023-09-22T22:18:15.737Z,8.77
2023-09-22T22:20:42.823Z,8.27
2023-09-22T22:23:14.143Z,7.85
2023-09-22T22:25:41.074Z,8.75
2023-09-22T22:28:08.428Z,6.03
2023-09-22T22:30:38.554Z,8.40
2023-09-22T22:33:08.395Z,8.18
2023-09-22T22:35:36.881Z,7.40
2023-09-22T22:38:06.026Z,6.80
2023-09-22T22:40:33.632Z,6.05
2023-09-22T22:43:00.433Z,7.30
2023-09-22T22:45:30.731Z,9.68
2023-09-22T22:48:01.267Z,8.25
2023-09-22T22:50:28.943Z,7.78
2023-09-22T22:52:55.607Z,9.02
2023-09-22T22:55:25.053Z,8.60
2023-09-22T22:57:52.029Z,9.35
2023-09-22T23:00:23.015Z,9.10
2023-09-22T23:02:53.204Z,9.40
2023-09-22T23:05:20.092Z,8.43
2023-09-22T23:07:49.796Z,7.50
2023-09-22T23:10:16.976Z,9.73
2023-09-22T23:12:44.812Z,8.68
2023-09-22T23:15:13.899Z,8.80
2023-09-22T23:17:43.792Z,8.38
2023-09-22T23:20:11.260Z,8.50
2023-09-22T23:22:39.195Z,9.18
2023-09-22T23:25:08.468Z,7.85
2023-09-22T23:27:38.576Z,10.13
2023-09-22T23:30:06.324Z,9.73
2023-09-22T23:32:32.925Z,12.40
2023-09-22T23:35:01.804Z,15.73
2023-09-22T23:37:29.390Z,15.95
2023-09-22T23:39:55.969Z,15.52
2023-09-22T23:42:23.083Z,23.38
2023-09-22T23:44:51.147Z,23.15
2023-09-22T23:47:17.769Z,24.10
2023-09-22T23:49:45.259Z,20.63
2023-09-22T23:52:11.815Z,28.08
2023-09-22T23:54:38.441Z,16.67
2023-09-22T23:57:05.016Z,24.88
2023-09-22T23:59:31.527Z,23.50
